Time;durP1;ratioP1;P1;durP2;ratioP2;P2;SDS_P1;SDS_P2;PMS_P1;PMS_P2;Temp;Humidity;BMP_temperature;BMP_pressure;BME280_temperature;BME280_humidity;BME280_pressure;Samples;Min_cycle;Max_cycle;Signal;HPM_P1;HPM_P2
2022/03/29 00:04:18;;;;;;;44.93;25.80;;;;;10.60;101077.00;;;;10114623;29;20235;-79
2022/03/29 00:09:21;;;;;;;50.23;27.77;;;;;10.60;101085.00;;;;10118792;29;20663;-81
2022/03/29 00:14:24;;;;;;;46.53;25.67;;;;;10.60;101080.00;;;;10119039;29;20207;-80
2022/03/29 00:19:26;;;;;;;46.67;24.97;;;;;10.60;101069.00;;;;10088037;29;20215;-80
2022/03/29 00:24:27;;;;;;;50.57;27.13;;;;;10.60;101063.00;;;;10119283;29;20212;-80
2022/03/29 00:29:29;;;;;;;44.13;25.60;;;;;10.50;101052.00;;;;10117741;29;20212;-81
2022/03/29 00:34:31;;;;;;;47.43;26.27;;;;;10.50;101059.00;;;;10132991;29;20805;-80
2022/03/29 00:39:34;;;;;;;48.17;25.90;;;;;10.30;101044.00;;;;10126798;29;20241;-80
2022/03/29 00:44:38;;;;;;;48.33;26.07;;;;;10.20;101044.00;;;;10157140;29;20203;-80
2022/03/29 00:49:40;;;;;;;49.17;26.00;;;;;10.10;101039.00;;;;10117556;29;20211;-81
2022/03/29 00:54:42;;;;;;;45.53;25.10;;;;;10.10;101023.00;;;;10118217;29;20311;-81
2022/03/29 00:59:46;;;;;;;48.07;27.23;;;;;10.00;101024.00;;;;10104379;29;20216;-81
2022/03/29 01:04:48;;;;;;;50.87;27.63;;;;;9.90;101020.00;;;;10154733;29;20206;-81
2022/03/29 01:09:50;;;;;;;49.43;27.90;;;;;9.90;101004.00;;;;10142596;29;20251;-82
2022/03/29 01:14:52;;;;;;;47.20;26.60;;;;;9.80;101008.00;;;;10126878;29;20237;-81
2022/03/29 01:19:58;;;;;;;48.17;27.03;;;;;9.70;101004.00;;;;10127575;29;20213;-81
2022/03/29 01:25:01;;;;;;;45.27;27.07;;;;;9.70;101001.00;;;;10127632;29;20207;-81
2022/03/29 01:30:03;;;;;;;45.37;25.27;;;;;9.60;100994.00;;;;10127123;29;20302;-81
2022/03/29 01:35:06;;;;;;;53.17;25.87;;;;;9.60;100994.00;;;;10125911;29;20219;-81
2022/03/29 01:40:12;;;;;;;45.87;25.97;;;;;9.60;100985.00;;;;10141264;29;20202;-82
2022/03/29 01:45:15;;;;;;;47.03;25.83;;;;;9.60;100972.00;;;;10140430;29;20672;-82
2022/03/29 01:50:17;;;;;;;48.50;26.27;;;;;9.60;100970.00;;;;10125602;29;20258;-82
2022/03/29 01:55:21;;;;;;;44.90;26.03;;;;;9.60;100966.00;;;;10126359;29;20226;-82
2022/03/29 02:00:32;;;;;;;46.83;25.53;;;;;9.60;100949.00;;;;10157210;29;20388;-81
2022/03/29 02:05:34;;;;;;;49.83;26.13;;;;;9.60;100957.00;;;;10135084;29;20203;-82
2022/03/29 02:10:36;;;;;;;40.70;25.03;;;;;9.60;100943.00;;;;10124959;29;20302;-82
2022/03/29 02:15:40;;;;;;;49.30;26.00;;;;;9.60;100935.00;;;;10117145;29;20231;-82
2022/03/29 02:20:42;;;;;;;48.97;24.00;;;;;9.60;100928.00;;;;10102334;29;20944;-82
2022/03/29 02:25:47;;;;;;;40.20;22.53;;;;;9.60;100943.00;;;;10104290;29;20207;-82
2022/03/29 02:30:49;;;;;;;44.07;23.30;;;;;9.60;100945.00;;;;10115146;29;20239;-81
2022/03/29 02:35:52;;;;;;;37.77;23.67;;;;;9.60;100926.00;;;;10148566;29;20234;-81
2022/03/29 02:40:57;;;;;;;51.43;24.33;;;;;9.60;100916.00;;;;10157635;29;20207;-81
2022/03/29 02:45:59;;;;;;;41.27;23.87;;;;;9.60;100908.00;;;;10135851;29;20226;-82
2022/03/29 02:51:01;;;;;;;48.23;25.47;;;;;9.60;100899.00;;;;10135716;29;20211;-82
2022/03/29 02:56:04;;;;;;;45.33;23.33;;;;;9.60;100905.00;;;;10151233;29;20325;-83
2022/03/29 03:01:06;;;;;;;43.50;22.63;;;;;9.60;100893.00;;;;10165270;29;20283;-83
2022/03/29 03:06:08;;;;;;;39.53;21.50;;;;;9.60;100886.00;;;;10138438;29;20226;-83
2022/03/29 03:11:10;;;;;;;44.30;22.27;;;;;9.60;100890.00;;;;10148668;29;20207;-83
2022/03/29 03:16:12;;;;;;;47.53;21.90;;;;;9.60;100885.00;;;;10131923;29;20230;-82
2022/03/29 03:21:14;;;;;;;42.67;21.40;;;;;9.60;100877.00;;;;10147924;29;20210;-82
2022/03/29 03:26:16;;;;;;;40.27;20.73;;;;;9.60;100887.00;;;;10133444;29;20228;-83
2022/03/29 03:31:18;;;;;;;45.37;20.33;;;;;9.50;100875.00;;;;10132277;29;20259;-82
2022/03/29 03:36:20;;;;;;;43.87;19.83;;;;;9.40;100871.00;;;;10154908;29;20222;-83
2022/03/29 03:41:22;;;;;;;40.83;19.37;;;;;9.30;100885.00;;;;10170437;29;20210;-83
2022/03/29 03:46:24;;;;;;;38.90;19.47;;;;;9.20;100884.00;;;;10161442;29;20212;-82
2022/03/29 03:51:26;;;;;;;35.33;17.13;;;;;9.20;100882.00;;;;10130517;29;20286;-83
2022/03/29 03:56:28;;;;;;;39.00;18.43;;;;;9.10;100868.00;;;;10161911;29;20261;-82
2022/03/29 04:01:30;;;;;;;39.20;19.20;;;;;9.00;100859.00;;;;10130289;29;20218;-83
2022/03/29 04:06:32;;;;;;;40.37;18.20;;;;;9.00;100855.00;;;;10128715;29;20857;-82
2022/03/29 04:11:34;;;;;;;32.30;16.10;;;;;8.90;100851.00;;;;10130608;29;20760;-82
2022/03/29 04:16:36;;;;;;;29.50;18.33;;;;;8.90;100839.00;;;;10130860;29;20235;-82
2022/03/29 04:21:39;;;;;;;38.97;19.17;;;;;8.90;100832.00;;;;10129874;29;20244;-82
2022/03/29 04:26:41;;;;;;;35.67;19.70;;;;;8.90;100827.00;;;;10128908;29;20198;-81
2022/03/29 04:31:43;;;;;;;35.90;18.90;;;;;8.90;100818.00;;;;10130744;29;20323;-82
2022/03/29 04:36:45;;;;;;;40.30;17.13;;;;;8.80;100817.00;;;;10145414;29;20815;-82
2022/03/29 04:41:47;;;;;;;34.10;18.50;;;;;8.80;100811.00;;;;10144699;29;20257;-82
2022/03/29 04:47:09;;;;;;;38.93;18.53;;;;;8.80;100811.00;;;;10130468;29;20198;-83
2022/03/29 04:52:11;;;;;;;36.03;18.50;;;;;8.70;100803.00;;;;10130050;29;20202;-82
2022/03/29 04:57:12;;;;;;;41.00;17.83;;;;;8.70;100805.00;;;;10131083;29;20238;-83
2022/03/29 05:02:14;;;;;;;33.87;17.67;;;;;8.60;100802.00;;;;10131836;29;20250;-82
2022/03/29 05:07:17;;;;;;;42.10;18.67;;;;;8.60;100804.00;;;;10132766;29;20609;-81
2022/03/29 05:12:19;;;;;;;42.27;18.13;;;;;8.50;100789.00;;;;10149203;29;20246;-82
2022/03/29 05:17:21;;;;;;;31.83;17.53;;;;;8.40;100790.00;;;;10131355;29;20624;-81
2022/03/29 05:22:23;;;;;;;40.00;18.67;;;;;8.30;100799.00;;;;10112226;29;20260;-82
2022/03/29 05:27:25;;;;;;;36.20;17.97;;;;;8.10;100798.00;;;;10125463;29;20707;-82
2022/03/29 05:32:27;;;;;;;43.73;20.17;;;;;7.90;100789.00;;;;10115274;29;20207;-82
2022/03/29 05:37:29;;;;;;;39.00;18.97;;;;;7.90;100789.00;;;;10147584;29;20322;-81
2022/03/29 05:42:31;;;;;;;37.00;18.63;;;;;7.90;100794.00;;;;10179929;29;20211;-82
2022/03/29 05:52:56;;;;;;;34.97;18.83;;;;;8.00;100793.00;;;;10147100;29;20692;-82
2022/03/29 05:57:58;;;;;;;40.33;19.83;;;;;8.00;100797.00;;;;10131672;29;20290;-82
2022/03/29 06:03:00;;;;;;;37.00;19.97;;;;;8.10;100789.00;;;;10132030;29;20226;-82
2022/03/29 06:08:02;;;;;;;37.20;19.90;;;;;8.20;100790.00;;;;10109550;29;20273;-82
2022/03/29 06:13:05;;;;;;;51.63;21.83;;;;;8.30;100805.00;;;;10094365;29;20230;-82
2022/03/29 06:18:07;;;;;;;46.27;21.57;;;;;8.40;100790.00;;;;10099636;29;20219;-82
2022/03/29 06:23:09;;;;;;;50.17;22.90;;;;;8.70;100801.00;;;;10115955;29;20200;-82
2022/03/29 06:28:14;;;;;;;37.60;21.23;;;;;8.90;100799.00;;;;10118162;29;20670;-83
2022/03/29 06:33:16;;;;;;;47.17;21.40;;;;;9.10;100798.00;;;;10139702;29;20569;-83
2022/03/29 06:38:21;;;;;;;45.83;21.47;;;;;9.30;100803.00;;;;10131285;29;20627;-82
2022/03/29 06:43:23;;;;;;;41.00;20.40;;;;;9.40;100796.00;;;;10116101;29;20261;-82
2022/03/29 06:48:25;;;;;;;45.00;20.07;;;;;9.50;100793.00;;;;10116710;29;20256;-82
2022/03/29 06:53:27;;;;;;;38.57;19.57;;;;;9.70;100785.00;;;;10113878;29;20203;-82
2022/03/29 06:58:29;;;;;;;45.30;21.37;;;;;9.90;100786.00;;;;10109212;29;20235;-81
2022/03/29 07:03:32;;;;;;;39.97;20.83;;;;;10.30;100795.00;;;;10099942;29;20773;-82
2022/03/29 07:08:35;;;;;;;43.63;20.47;;;;;10.80;100794.00;;;;10125629;29;20208;-80
2022/03/29 07:13:38;;;;;;;43.33;20.50;;;;;11.20;100792.00;;;;10131945;29;20213;-80
2022/03/29 07:18:41;;;;;;;37.13;20.17;;;;;11.60;100776.00;;;;10108014;29;20319;-80
2022/03/29 07:23:43;;;;;;;38.17;19.80;;;;;11.90;100780.00;;;;10135308;29;20198;-80
2022/03/29 07:28:46;;;;;;;35.47;19.27;;;;;12.20;100777.00;;;;10147866;29;20203;-80
2022/03/29 07:33:48;;;;;;;37.23;19.10;;;;;12.20;100765.00;;;;10148734;29;20689;-80
2022/03/29 07:38:50;;;;;;;36.00;19.23;;;;;12.40;100766.00;;;;10147367;29;20233;-80
2022/03/29 07:43:54;;;;;;;39.10;21.63;;;;;12.40;100762.00;;;;10147207;29;20207;-79
2022/03/29 07:48:56;;;;;;;37.97;20.03;;;;;12.60;100758.00;;;;10154890;29;20199;-80
2022/03/29 07:54:18;;;;;;;42.97;22.00;;;;;12.70;100753.00;;;;10130676;29;20354;-80
2022/03/29 07:59:20;;;;;;;36.20;20.40;;;;;12.90;100760.00;;;;10163380;29;20223;-81
2022/03/29 08:04:23;;;;;;;38.43;20.83;;;;;13.20;100768.00;;;;10153439;29;20275;-80
2022/03/29 08:09:28;;;;;;;36.90;22.03;;;;;13.50;100761.00;;;;10162637;29;20689;-81
2022/03/29 08:14:38;;;;;;;35.63;22.27;;;;;13.80;100755.00;;;;10146986;29;20211;-81
2022/03/29 08:19:40;;;;;;;38.13;21.70;;;;;14.10;100753.00;;;;10143803;29;20233;-81
2022/03/29 08:24:42;;;;;;;40.10;23.80;;;;;14.40;100754.00;;;;10145928;29;20673;-81
2022/03/29 08:29:44;;;;;;;39.47;22.33;;;;;14.60;100745.00;;;;10130722;29;20210;-81
2022/03/29 08:34:46;;;;;;;36.67;21.47;;;;;15.00;100725.00;;;;10162435;29;20202;-81
2022/03/29 08:39:48;;;;;;;41.17;23.23;;;;;15.20;100731.00;;;;10144730;29;20230;-80
2022/03/29 08:44:50;;;;;;;44.73;24.13;;;;;15.30;100731.00;;;;10130508;29;20194;-80
2022/03/29 08:49:52;;;;;;;45.37;25.57;;;;;15.60;100728.00;;;;10161031;29;20295;-81
2022/03/29 08:54:55;;;;;;;41.57;23.80;;;;;15.80;100726.00;;;;10130641;29;20364;-81
2022/03/29 08:59:58;;;;;;;38.83;24.00;;;;;15.80;100714.00;;;;10128702;29;20260;-81
2022/03/29 09:05:09;;;;;;;37.73;23.87;;;;;16.20;100703.00;;;;10143779;29;20211;-81
2022/03/29 09:10:12;;;;;;;39.00;23.27;;;;;16.30;100702.00;;;;10141042;29;20211;-81
2022/03/29 09:15:14;;;;;;;44.17;24.73;;;;;16.40;100700.00;;;;10158462;29;20227;-80
2022/03/29 09:20:21;;;;;;;40.47;24.17;;;;;16.70;100710.00;;;;10157727;29;20199;-80
2022/03/29 09:25:33;;;;;;;39.47;25.27;;;;;16.90;100695.00;;;;10145365;29;20207;-81
2022/03/29 09:30:46;;;;;;;36.93;23.47;;;;;17.10;100695.00;;;;10126827;29;20255;-81
2022/03/29 09:35:57;;;;;;;37.87;24.83;;;;;17.40;100703.00;;;;10142175;29;20702;-82
2022/03/29 09:41:00;;;;;;;41.17;25.13;;;;;17.80;100699.00;;;;10107743;29;20714;-81
2022/03/29 09:46:54;;;;;;;37.13;24.67;;;;;18.10;100702.00;;;;10143903;29;20275;-81
2022/03/29 09:52:14;;;;;;;39.43;24.67;;;;;18.40;100683.00;;;;10132679;29;20217;-81
2022/03/29 09:57:16;;;;;;;37.38;24.70;;;;;18.90;100673.00;;;;10150334;29;20232;-81
2022/03/29 10:02:18;;;;;;;37.53;25.45;;;;;19.00;100681.00;;;;10148860;29;20223;-80
2022/03/29 10:07:20;;;;;;;37.08;24.80;;;;;19.10;100685.00;;;;10148311;29;20207;-82
2022/03/29 10:12:23;;;;;;;38.03;23.65;;;;;19.40;100670.00;;;;10130518;29;20214;-81
2022/03/29 10:17:26;;;;;;;39.47;24.50;;;;;19.40;100667.00;;;;10132356;29;20274;-82
2022/03/29 10:22:28;;;;;;;38.95;24.83;;;;;19.50;100668.00;;;;10137516;29;20203;-82
2022/03/29 10:27:31;;;;;;;38.97;22.60;;;;;19.50;100667.00;;;;10137616;29;20230;-81
2022/03/29 10:32:33;;;;;;;38.17;23.65;;;;;19.40;100654.00;;;;10124300;29;20207;-82
2022/03/29 10:37:53;;;;;;;32.97;22.45;;;;;19.50;100656.00;;;;10141891;29;20653;-81
2022/03/29 10:42:55;;;;;;;34.72;21.80;;;;;19.80;100644.00;;;;10157271;29;20336;-82
2022/03/29 10:48:04;;;;;;;29.98;19.52;;;;;20.00;100630.00;;;;10166502;29;20619;-80
2022/03/29 10:53:30;;;;;;;33.35;19.92;;;;;20.10;100625.00;;;;10143544;29;20292;-82
2022/03/29 10:58:32;;;;;;;31.10;21.08;;;;;20.50;100616.00;;;;10136303;29;20271;-82
2022/03/29 11:03:36;;;;;;;33.05;20.42;;;;;20.20;100614.00;;;;10142950;29;20230;-82
2022/03/29 11:08:47;;;;;;;33.03;20.60;;;;;20.30;100599.00;;;;10152778;29;20199;-82
2022/03/29 11:13:49;;;;;;;34.20;19.08;;;;;20.60;100604.00;;;;10150999;29;20866;-82
2022/03/29 11:18:58;;;;;;;28.60;17.52;;;;;20.80;100580.00;;;;10159784;29;20682;-82
2022/03/29 11:24:02;;;;;;;37.33;19.15;;;;;21.10;100580.00;;;;10201048;29;20212;-83
2022/03/29 11:29:07;;;;;;;33.45;20.67;;;;;21.20;100575.00;;;;10187439;29;20215;-81
2022/03/29 11:34:10;;;;;;;30.13;18.63;;;;;21.10;100569.00;;;;10162217;29;20232;-83
2022/03/29 11:39:25;;;;;;;28.15;20.23;;;;;21.30;100562.00;;;;10151292;29;20232;-82
2022/03/29 11:44:28;;;;;;;34.92;21.08;;;;;21.50;100560.00;;;;10136061;29;20202;-83
2022/03/29 11:49:39;;;;;;;27.83;18.20;;;;;21.90;100547.00;;;;10170602;29;20235;-82
2022/03/29 11:54:54;;;;;;;29.25;19.75;;;;;22.10;100540.00;;;;10138757;29;20221;-82
2022/03/29 11:59:57;;;;;;;33.38;20.92;;;;;21.80;100540.00;;;;10172512;29;20690;-82
2022/03/29 12:04:59;;;;;;;31.15;18.38;;;;;21.80;100521.00;;;;10124143;29;20482;-83
2022/03/29 12:10:02;;;;;;;24.63;15.68;;;;;21.80;100525.00;;;;10148649;29;20270;-82
2022/03/29 12:15:06;;;;;;;31.45;18.27;;;;;21.40;100509.00;;;;10157076;29;20562;-82
2022/03/29 12:20:08;;;;;;;33.30;20.67;;;;;21.40;100508.00;;;;10160083;29;20219;-82
2022/03/29 12:25:10;;;;;;;33.95;22.95;;;;;21.30;100511.00;;;;10153846;29;20210;-81
2022/03/29 12:30:12;;;;;;;33.03;23.08;;;;;21.20;100497.00;;;;10148225;29;20218;-82
2022/03/29 12:35:18;;;;;;;32.92;23.00;;;;;21.20;100481.00;;;;10146486;29;20214;-81
2022/03/29 12:40:20;;;;;;;33.17;26.60;;;;;21.00;100486.00;;;;10110792;29;20522;-82
2022/03/29 12:45:24;;;;;;;36.33;27.70;;;;;20.90;100483.00;;;;10111968;29;20222;-81
2022/03/29 12:50:26;;;;;;;39.67;28.75;;;;;20.60;100476.00;;;;10131248;29;20213;-82
2022/03/29 12:55:30;;;;;;;43.05;30.08;;;;;20.50;100471.00;;;;10161045;29;20303;-81
2022/03/29 13:00:41;;;;;;;39.75;26.70;;;;;20.30;100461.00;;;;10130538;29;20294;-81
2022/03/29 13:05:47;;;;;;;44.67;30.55;;;;;20.50;100461.00;;;;10163575;29;20215;-81
2022/03/29 13:10:50;;;;;;;43.92;30.58;;;;;20.50;100461.00;;;;10169360;29;20210;-81
2022/03/29 13:16:06;;;;;;;44.28;29.45;;;;;20.30;100443.00;;;;10186178;29;20656;-81
2022/03/29 13:21:28;;;;;;;59.75;38.13;;;;;20.10;100436.00;;;;10169956;29;20302;-80
2022/03/29 13:26:35;;;;;;;40.70;29.48;;;;;19.90;100425.00;;;;10213203;28;20205;-81
2022/03/29 13:31:42;;;;;;;44.88;30.45;;;;;19.70;100423.00;;;;10216085;29;20209;-80
2022/03/29 13:36:46;;;;;;;41.75;26.33;;;;;19.70;100421.00;;;;10169181;29;20232;-80
2022/03/29 13:41:48;;;;;;;40.88;29.45;;;;;19.80;100412.00;;;;10207526;29;20202;-81
2022/03/29 13:46:50;;;;;;;38.70;28.45;;;;;19.80;100410.00;;;;10157692;29;20659;-82
2022/03/29 13:51:54;;;;;;;40.90;28.42;;;;;19.60;100403.00;;;;10140146;29;20211;-82
2022/03/29 13:56:56;;;;;;;39.88;28.00;;;;;19.50;100400.00;;;;10140532;29;20229;-81
2022/03/29 14:02:01;;;;;;;39.88;31.50;;;;;19.30;100403.00;;;;10149183;29;20720;-82
2022/03/29 14:07:07;;;;;;;36.90;29.80;;;;;19.10;100393.00;;;;10152973;29;20191;-82
2022/03/29 14:12:09;;;;;;;46.97;31.02;;;;;19.00;100391.00;;;;10154311;29;20259;-80
2022/03/29 14:17:11;;;;;;;45.08;31.67;;;;;18.90;100388.00;;;;10153353;29;20211;-81
2022/03/29 14:22:14;;;;;;;41.15;31.38;;;;;18.70;100386.00;;;;10143785;29;20282;-82
2022/03/29 14:27:16;;;;;;;43.15;31.48;;;;;18.70;100379.00;;;;10166981;29;20714;-82
2022/03/29 14:32:19;;;;;;;46.80;32.30;;;;;18.80;100385.00;;;;10144327;29;20224;-82
2022/03/29 14:37:22;;;;;;;45.33;32.67;;;;;18.90;100371.00;;;;10152206;29;20222;-81
2022/03/29 14:42:25;;;;;;;44.28;31.77;;;;;18.60;100363.00;;;;10178374;29;20203;-82
2022/03/29 14:47:29;;;;;;;51.05;32.28;;;;;18.60;100358.00;;;;10163176;29;20215;-82
2022/03/29 14:52:31;;;;;;;52.85;33.78;;;;;18.50;100361.00;;;;10177292;29;20252;-82
2022/03/29 14:57:34;;;;;;;54.92;34.53;;;;;18.40;100357.00;;;;10141424;29;20236;-80
2022/03/29 15:02:36;;;;;;;49.28;33.00;;;;;18.20;100347.00;;;;10166394;29;20237;-81
2022/03/29 15:07:40;;;;;;;47.88;32.47;;;;;18.00;100345.00;;;;10179918;29;20191;-82
2022/03/29 15:12:42;;;;;;;47.63;32.15;;;;;18.00;100332.00;;;;10170465;29;20187;-81
2022/03/29 15:17:45;;;;;;;49.20;34.08;;;;;17.90;100335.00;;;;10161372;29;20669;-81
2022/03/29 15:22:48;;;;;;;56.60;36.35;;;;;17.80;100333.00;;;;10154069;29;20199;-82
2022/03/29 15:27:51;;;;;;;68.85;41.28;;;;;17.50;100319.00;;;;10166587;29;20206;-82
2022/03/29 15:33:16;;;;;;;76.22;43.45;;;;;17.20;100318.00;;;;10182139;29;20234;-82
2022/03/29 15:38:18;;;;;;;71.25;40.53;;;;;16.90;100308.00;;;;10189154;29;20242;-81
2022/03/29 15:43:22;;;;;;;79.13;41.43;;;;;16.70;100307.00;;;;10204671;29;20222;-81
2022/03/29 15:48:25;;;;;;;70.13;41.37;;;;;16.50;100303.00;;;;10175082;29;20183;-83
2022/03/29 15:53:29;;;;;;;67.63;41.67;;;;;16.30;100304.00;;;;10159116;29;20234;-81
2022/03/29 15:58:32;;;;;;;70.83;43.07;;;;;16.00;100296.00;;;;10165528;29;20247;-81
2022/03/29 16:03:50;;;;;;;69.63;41.80;;;;;15.70;100295.00;;;;10177092;29;20230;-80
2022/03/29 16:08:53;;;;;;;71.30;41.27;;;;;15.50;100295.00;;;;10201228;29;20250;-82
2022/03/29 16:13:56;;;;;;;72.43;41.00;;;;;15.40;100285.00;;;;10193119;29;20202;-82
2022/03/29 16:18:58;;;;;;;71.53;40.23;;;;;15.30;100285.00;;;;10159491;29;20271;-82
2022/03/29 16:24:01;;;;;;;66.93;38.43;;;;;15.20;100282.00;;;;10137437;29;20243;-82
2022/03/29 16:29:05;;;;;;;70.13;40.20;;;;;15.10;100286.00;;;;10141081;29;20238;-82
2022/03/29 16:34:10;;;;;;;65.63;38.63;;;;;15.00;100283.00;;;;10167894;29;20218;-82
2022/03/29 16:39:13;;;;;;;64.10;37.00;;;;;14.80;100287.00;;;;10169583;29;20250;-81
2022/03/29 16:44:17;;;;;;;55.63;37.57;;;;;14.70;100284.00;;;;10163687;29;20238;-82
2022/03/29 16:49:19;;;;;;;58.23;36.37;;;;;14.60;100277.00;;;;10146616;29;20203;-83
2022/03/29 16:54:21;;;;;;;58.67;35.40;;;;;14.50;100276.00;;;;10138081;29;20202;-82
2022/03/29 16:59:24;;;;;;;59.50;36.93;;;;;14.40;100287.00;;;;10120307;29;20223;-81
2022/03/29 17:04:26;;;;;;;51.13;34.30;;;;;14.40;100276.00;;;;10132211;29;20231;-83
2022/03/29 17:09:29;;;;;;;43.70;32.70;;;;;14.20;100280.00;;;;10145158;29;20230;-83
2022/03/29 17:14:31;;;;;;;50.87;35.77;;;;;14.00;100270.00;;;;10151368;29;20220;-82
2022/03/29 17:19:33;;;;;;;50.00;34.03;;;;;13.90;100273.00;;;;10145283;29;20230;-81
2022/03/29 17:24:35;;;;;;;48.67;33.07;;;;;13.90;100268.00;;;;10141867;29;20202;-81
2022/03/29 17:29:37;;;;;;;49.03;33.00;;;;;13.80;100267.00;;;;10138208;29;20271;-82
2022/03/29 17:34:39;;;;;;;49.07;32.60;;;;;13.70;100269.00;;;;10152312;29;20297;-81
2022/03/29 17:39:43;;;;;;;55.67;34.50;;;;;13.60;100275.00;;;;10160334;29;20238;-81
2022/03/29 17:44:45;;;;;;;44.37;31.67;;;;;13.50;100272.00;;;;10156395;29;20326;-81
2022/03/29 17:49:47;;;;;;;46.60;30.70;;;;;13.40;100270.00;;;;10163740;29;20199;-82
2022/03/29 17:54:49;;;;;;;39.90;29.13;;;;;13.30;100271.00;;;;10163876;29;20227;-82
2022/03/29 17:59:52;;;;;;;44.50;29.77;;;;;13.10;100271.00;;;;10155782;29;20240;-81
2022/03/29 18:04:55;;;;;;;42.93;28.67;;;;;13.00;100274.00;;;;10158879;29;20207;-81
2022/03/29 18:09:57;;;;;;;41.23;27.63;;;;;12.90;100265.00;;;;10142684;29;20219;-82
2022/03/29 18:14:59;;;;;;;38.73;28.03;;;;;12.80;100262.00;;;;10144895;29;20199;-82
2022/03/29 18:20:03;;;;;;;35.73;26.27;;;;;12.70;100261.00;;;;10144238;29;20240;-82
2022/03/29 18:25:08;;;;;;;38.97;26.90;;;;;12.60;100261.00;;;;10126478;29;20220;-82
2022/03/29 18:30:11;;;;;;;38.53;26.67;;;;;12.50;100258.00;;;;10139163;29;20423;-81
2022/03/29 18:35:14;;;;;;;37.87;26.00;;;;;12.50;100257.00;;;;10181233;29;20191;-83
2022/03/29 18:40:21;;;;;;;39.87;26.40;;;;;12.40;100253.00;;;;10128852;29;20299;-82
2022/03/29 18:45:22;;;;;;;39.30;26.53;;;;;12.30;100264.00;;;;10163643;29;20207;-82
2022/03/29 18:50:24;;;;;;;36.33;25.67;;;;;12.30;100265.00;;;;10165888;29;20278;-82
2022/03/29 18:55:27;;;;;;;39.53;25.63;;;;;12.20;100270.00;;;;10141870;29;20207;-82
2022/03/29 19:00:30;;;;;;;42.83;27.80;;;;;12.20;100263.00;;;;10140353;29;20262;-83
2022/03/29 19:05:33;;;;;;;38.90;25.80;;;;;12.10;100271.00;;;;10164231;29;20210;-82
2022/03/29 19:10:35;;;;;;;35.83;25.73;;;;;12.10;100268.00;;;;10162480;29;20229;-82
2022/03/29 19:15:41;;;;;;;39.40;25.57;;;;;12.10;100265.00;;;;10159000;29;20215;-83
2022/03/29 19:20:47;;;;;;;40.00;26.13;;;;;12.00;100259.00;;;;10158912;29;20221;-82
2022/03/29 19:25:50;;;;;;;37.53;24.03;;;;;12.00;100272.00;;;;10115684;29;20214;-81
2022/03/29 19:30:52;;;;;;;34.40;24.53;;;;;11.90;100271.00;;;;10129754;29;20221;-82
2022/03/29 19:35:54;;;;;;;38.00;25.00;;;;;11.80;100259.00;;;;10168713;29;20254;-81
2022/03/29 19:40:57;;;;;;;34.60;23.87;;;;;11.70;100252.00;;;;10153223;29;20374;-83
2022/03/29 19:45:59;;;;;;;36.07;24.33;;;;;11.60;100257.00;;;;10172760;29;20231;-82
2022/03/29 19:51:19;;;;;;;38.43;24.80;;;;;11.50;100254.00;;;;10154400;29;20206;-82
2022/03/29 19:56:22;;;;;;;39.27;25.00;;;;;11.40;100257.00;;;;10150495;29;20211;-82
2022/03/29 20:01:24;;;;;;;37.27;25.00;;;;;11.30;100257.00;;;;10152155;29;20256;-82
2022/03/29 20:06:27;;;;;;;37.47;23.50;;;;;11.20;100263.00;;;;10135003;29;20219;-82
2022/03/29 20:11:30;;;;;;;39.53;23.97;;;;;11.20;100269.00;;;;10148587;29;20470;-82
2022/03/29 20:16:32;;;;;;;39.73;23.10;;;;;11.20;100262.00;;;;10103807;29;20238;-82
2022/03/29 20:21:34;;;;;;;35.07;21.97;;;;;11.20;100269.00;;;;10154279;29;20750;-82
2022/03/29 20:26:39;;;;;;;37.10;22.73;;;;;11.20;100270.00;;;;10150501;29;20885;-82
2022/03/29 20:31:42;;;;;;;40.50;23.47;;;;;11.20;100270.00;;;;10123092;29;20750;-82
2022/03/29 20:36:47;;;;;;;32.60;22.03;;;;;11.20;100265.00;;;;10136623;29;20203;-82
2022/03/29 20:41:50;;;;;;;32.50;21.90;;;;;11.20;100261.00;;;;10135440;29;20253;-83
2022/03/29 20:46:54;;;;;;;29.23;20.10;;;;;11.10;100262.00;;;;10147474;29;20837;-83
2022/03/29 20:51:56;;;;;;;33.00;21.80;;;;;11.10;100259.00;;;;10133107;29;20204;-81
2022/03/29 20:56:58;;;;;;;29.53;20.23;;;;;11.10;100259.00;;;;10119879;29;20207;-82
2022/03/29 21:02:01;;;;;;;28.93;19.83;;;;;11.10;100254.00;;;;10114241;29;20239;-81
2022/03/29 21:07:04;;;;;;;28.17;19.93;;;;;11.10;100244.00;;;;10130831;29;20691;-81
2022/03/29 21:12:07;;;;;;;28.80;20.47;;;;;11.00;100243.00;;;;10141167;29;20207;-81
2022/03/29 21:17:09;;;;;;;29.97;20.33;;;;;11.00;100236.00;;;;10137312;29;20199;-82
2022/03/29 21:22:11;;;;;;;30.50;20.33;;;;;11.00;100234.00;;;;10122139;29;20204;-81
2022/03/29 21:27:14;;;;;;;32.13;20.80;;;;;10.90;100234.00;;;;10123670;29;20260;-82
2022/03/29 21:32:16;;;;;;;29.20;19.47;;;;;10.90;100238.00;;;;10131218;29;20207;-81
2022/03/29 21:37:17;;;;;;;27.23;19.03;;;;;10.90;100232.00;;;;10106847;29;20267;-82
2022/03/29 21:42:19;;;;;;;31.23;20.63;;;;;10.80;100229.00;;;;10121689;29;20265;-81
2022/03/29 21:47:21;;;;;;;34.67;21.27;;;;;10.70;100224.00;;;;10148229;29;20198;-81
2022/03/29 21:52:23;;;;;;;28.20;21.00;;;;;10.70;100221.00;;;;10130855;29;20266;-81
2022/03/29 21:57:44;;;;;;;31.40;21.73;;;;;10.70;100224.00;;;;10141423;29;20315;-82
2022/03/29 22:03:09;;;;;;;33.67;22.67;;;;;10.60;100212.00;;;;10144203;29;20283;-81
2022/03/29 22:08:31;;;;;;;35.83;21.83;;;;;10.60;100215.00;;;;10144926;29;20215;-81
2022/03/29 22:13:33;;;;;;;38.40;23.20;;;;;10.50;100219.00;;;;10107611;29;20204;-80
2022/03/29 22:18:35;;;;;;;36.57;23.97;;;;;10.50;100210.00;;;;10121728;29;20264;-80
2022/03/29 22:23:37;;;;;;;35.00;23.90;;;;;10.40;100216.00;;;;10105847;29;20199;-82
2022/03/29 22:28:39;;;;;;;36.77;23.93;;;;;10.40;100211.00;;;;10107126;29;20211;-82
2022/03/29 22:33:41;;;;;;;37.53;24.03;;;;;10.40;100210.00;;;;10110662;29;20719;-82
2022/03/29 22:38:43;;;;;;;38.97;25.67;;;;;10.30;100200.00;;;;10145777;29;20541;-82
2022/03/29 22:43:45;;;;;;;36.67;24.47;;;;;10.30;100200.00;;;;10130355;29;20264;-82
2022/03/29 22:48:47;;;;;;;32.07;22.77;;;;;10.20;100203.00;;;;10113035;29;20276;-83
2022/03/29 22:53:49;;;;;;;39.60;25.47;;;;;10.20;100189.00;;;;10136897;29;20327;-81
2022/03/29 22:58:51;;;;;;;38.63;24.67;;;;;10.20;100182.00;;;;10110491;29;20683;-82
2022/03/29 23:03:53;;;;;;;40.83;26.43;;;;;10.10;100186.00;;;;10118138;29;20813;-82
2022/03/29 23:08:55;;;;;;;39.50;25.37;;;;;10.10;100186.00;;;;10136222;29;20202;-82
2022/03/29 23:13:56;;;;;;;37.73;25.07;;;;;10.10;100180.00;;;;10190707;29;20198;-82
2022/03/29 23:18:58;;;;;;;37.87;24.93;;;;;10.00;100182.00;;;;10174431;29;20237;-81
2022/03/29 23:24:01;;;;;;;41.37;26.47;;;;;10.00;100185.00;;;;10174255;29;20293;-81
2022/03/29 23:29:03;;;;;;;38.27;24.10;;;;;9.90;100194.00;;;;10173609;29;20258;-82
2022/03/29 23:34:06;;;;;;;38.60;24.43;;;;;9.90;100185.00;;;;10147075;29;20550;-81
2022/03/29 23:39:09;;;;;;;42.00;24.00;;;;;9.90;100187.00;;;;10174545;29;20218;-81
2022/03/29 23:44:12;;;;;;;41.23;24.63;;;;;9.90;100181.00;;;;10190743;29;20226;-81
2022/03/29 23:49:14;;;;;;;39.30;24.97;;;;;9.70;100174.00;;;;10188611;29;20265;-81
2022/03/29 23:54:16;;;;;;;44.00;25.40;;;;;9.60;100170.00;;;;10190445;29;20206;-81
2022/03/29 23:59:19;;;;;;;40.97;24.80;;;;;9.50;100179.00;;;;10188377;29;20213;-82
